createdAt,value
2022-09-16T00:01:55.443Z,15.24
2022-09-16T00:05:02.489Z,15.20
2022-09-16T00:08:09.993Z,15.18
2022-09-16T00:11:17.018Z,15.15
2022-09-16T00:14:26.030Z,15.11
2022-09-16T00:17:31.979Z,15.11
2022-09-16T00:20:38.189Z,15.10
2022-09-16T00:23:45.301Z,15.12
2022-09-16T00:26:51.595Z,15.12
2022-09-16T00:29:56.920Z,15.16
2022-09-16T00:33:03.410Z,15.21
2022-09-16T00:36:19.219Z,15.23
2022-09-16T00:39:24.077Z,15.27
2022-09-16T00:42:31.565Z,15.32
2022-09-16T00:45:39.211Z,15.35
2022-09-16T00:48:46.646Z,15.38
2022-09-16T00:51:54.979Z,15.39
2022-09-16T00:55:01.276Z,15.41
2022-09-16T00:58:08.684Z,15.46
2022-09-16T01:01:14.219Z,15.51
2022-09-16T01:04:23.930Z,15.56
2022-09-16T01:07:29.138Z,15.62
2022-09-16T01:10:38.100Z,15.66
2022-09-16T01:13:44.033Z,15.68
2022-09-16T01:16:52.117Z,15.71
2022-09-16T01:20:36.271Z,15.75
2022-09-16T01:24:03.056Z,15.77
2022-09-16T01:27:28.062Z,15.83
2022-09-16T01:31:08.140Z,15.85
2022-09-16T01:34:23.794Z,15.88
2022-09-16T01:37:49.081Z,15.89
2022-09-16T01:41:16.447Z,15.92
2022-09-16T01:44:41.503Z,15.94
2022-09-16T01:48:19.488Z,15.97
2022-09-16T01:51:38.520Z,15.99
2022-09-16T01:54:57.199Z,16.01
2022-09-16T01:58:12.991Z,16.03
2022-09-16T02:01:33.044Z,16.07
2022-09-16T02:04:47.991Z,16.07
2022-09-16T02:07:56.748Z,16.08
2022-09-16T02:11:07.946Z,16.10
2022-09-16T02:14:36.719Z,16.11
2022-09-16T02:17:43.876Z,16.12
2022-09-16T02:20:53.726Z,16.14
2022-09-16T02:24:04.815Z,16.15
2022-09-16T02:27:15.194Z,16.16
2022-09-16T02:30:24.710Z,16.17
2022-09-16T02:33:30.126Z,16.17
2022-09-16T02:36:37.906Z,16.16
2022-09-16T02:39:46.828Z,16.16
2022-09-16T02:42:53.238Z,16.17
2022-09-16T02:46:24.603Z,16.18
2022-09-16T02:49:56.401Z,16.17
2022-09-16T02:53:18.548Z,16.18
2022-09-16T02:56:48.401Z,16.17
2022-09-16T02:59:54.040Z,16.16
2022-09-16T03:03:01.447Z,16.18
2022-09-16T03:06:29.348Z,16.19
2022-09-16T03:09:36.607Z,16.20
2022-09-16T03:13:05.124Z,16.21
2022-09-16T03:16:26.809Z,16.22
2022-09-16T03:20:07.302Z,16.23
2022-09-16T03:23:42.888Z,16.22
2022-09-16T03:27:01.326Z,16.23
2022-09-16T03:30:19.399Z,16.22
2022-09-16T03:34:03.755Z,16.22
2022-09-16T03:37:24.935Z,16.20
2022-09-16T03:40:32.268Z,16.18
2022-09-16T03:43:38.498Z,16.17
2022-09-16T03:46:44.859Z,16.18
2022-09-16T03:49:51.521Z,16.20
2022-09-16T03:52:59.906Z,16.22
2022-09-16T03:56:06.236Z,16.23
2022-09-16T03:59:14.403Z,16.25
2022-09-16T04:02:20.869Z,16.28
2022-09-16T04:05:27.442Z,16.30
2022-09-16T04:08:34.219Z,16.33
2022-09-16T04:11:42.356Z,16.38
2022-09-16T04:14:49.503Z,16.41
2022-09-16T04:17:55.158Z,16.43
2022-09-16T04:21:01.359Z,16.48
2022-09-16T04:24:12.646Z,16.50
2022-09-16T04:27:14.656Z,16.53
2022-09-16T04:30:22.342Z,16.57
2022-09-16T04:33:28.648Z,16.60
2022-09-16T04:36:35.282Z,16.61
2022-09-16T04:39:43.338Z,16.62
2022-09-16T04:42:49.297Z,16.65
2022-09-16T04:45:55.580Z,16.69
2022-09-16T04:49:08.149Z,16.70
2022-09-16T04:52:13.761Z,16.71
2022-09-16T04:55:20.837Z,16.73
2022-09-16T04:58:28.170Z,16.75
2022-09-16T05:01:37.971Z,16.77
2022-09-16T05:04:44.549Z,16.79
2022-09-16T05:07:52.376Z,16.83
2022-09-16T05:10:59.886Z,16.86
2022-09-16T05:14:06.923Z,16.90
2022-09-16T05:17:33.163Z,16.93
2022-09-16T05:20:23.317Z,16.95
2022-09-16T05:23:28.846Z,16.98
2022-09-16T05:26:43.640Z,16.99
2022-09-16T05:29:50.033Z,17.00
2022-09-16T05:32:57.213Z,17.01
2022-09-16T05:36:03.012Z,17.03
2022-09-16T05:39:24.774Z,17.06
2022-09-16T05:42:16.997Z,17.09
2022-09-16T05:45:30.048Z,17.12
2022-09-16T05:48:32.774Z,17.16
2022-09-16T05:51:38.888Z,17.19
2022-09-16T05:54:45.033Z,17.25
2022-09-16T05:57:50.970Z,17.32
2022-09-16T06:00:57.308Z,17.37
2022-09-16T06:04:04.893Z,17.39
2022-09-16T06:07:12.039Z,17.41
2022-09-16T06:10:16.998Z,17.43
2022-09-16T06:13:22.886Z,17.49
2022-09-16T06:16:32.161Z,17.55
2022-09-16T06:19:39.497Z,17.62
2022-09-16T06:22:46.859Z,17.68
2022-09-16T06:25:51.817Z,17.76
2022-09-16T06:28:59.192Z,17.88
2022-09-16T06:32:05.228Z,17.99
2022-09-16T06:35:11.543Z,18.10
2022-09-16T06:38:18.587Z,18.25
2022-09-16T06:41:25.453Z,18.30
2022-09-16T06:44:31.944Z,18.34
2022-09-16T06:47:39.883Z,18.37
2022-09-16T06:50:45.665Z,18.44
2022-09-16T06:53:55.255Z,18.49
2022-09-16T06:57:11.407Z,18.57
2022-09-16T07:00:14.475Z,18.64
2022-09-16T07:03:21.797Z,18.69
2022-09-16T07:06:57.761Z,18.71
2022-09-16T07:09:39.466Z,18.65
2022-09-16T07:12:47.155Z,18.65
2022-09-16T07:16:12.230Z,18.67
2022-09-16T07:19:01.377Z,18.74
2022-09-16T07:22:09.824Z,18.83
2022-09-16T07:25:19.283Z,18.90
2022-09-16T07:28:26.084Z,18.94
2022-09-16T07:31:39.626Z,18.94
2022-09-16T07:34:48.326Z,18.92
2022-09-16T07:37:54.650Z,18.90
2022-09-16T07:41:01.797Z,18.92
2022-09-16T07:44:09.138Z,18.97
2022-09-16T07:47:21.431Z,19.03
2022-09-16T07:50:25.933Z,19.09
2022-09-16T07:53:35.666Z,19.13
2022-09-16T07:56:47.739Z,19.11
2022-09-16T07:59:55.220Z,19.12
2022-09-16T08:03:04.714Z,19.07
2022-09-16T08:06:24.725Z,19.04
2022-09-16T08:09:44.231Z,19.01
2022-09-16T08:12:43.979Z,19.02
2022-09-16T08:15:50.094Z,18.98
2022-09-16T08:19:10.258Z,18.92
2022-09-16T08:22:15.947Z,18.84
2022-09-16T08:25:22.364Z,18.80
2022-09-16T08:28:40.036Z,18.80
2022-09-16T08:31:39.249Z,18.78
2022-09-16T08:34:47.064Z,18.72
2022-09-16T08:37:54.443Z,18.67
2022-09-16T08:41:00.501Z,18.64
2022-09-16T08:44:54.192Z,18.62
2022-09-16T08:48:28.498Z,18.60
2022-09-16T08:51:34.996Z,18.62
2022-09-16T08:55:05.518Z,18.61
2022-09-16T08:58:31.581Z,18.63
2022-09-16T09:02:24.447Z,18.64
2022-09-16T09:05:34.421Z,18.63
2022-09-16T09:08:58.693Z,18.62
2022-09-16T09:12:26.731Z,18.62
2022-09-16T09:15:48.603Z,18.62
2022-09-16T09:19:33.760Z,18.55
2022-09-16T09:23:09.166Z,18.48
2022-09-16T09:26:31.065Z,18.35
2022-09-16T09:30:04.490Z,18.26
2022-09-16T09:33:46.637Z,18.14
2022-09-16T09:37:07.796Z,18.02
2022-09-16T09:40:44.308Z,17.86
2022-09-16T09:44:02.979Z,17.76
2022-09-16T09:47:11.862Z,17.70
2022-09-16T09:50:44.473Z,17.64
2022-09-16T09:54:19.269Z,17.58
2022-09-16T09:57:58.092Z,17.49
2022-09-16T10:01:05.622Z,17.41
2022-09-16T10:04:11.733Z,17.38
2022-09-16T10:07:19.644Z,17.38
2022-09-16T10:10:33.596Z,17.35
2022-09-16T10:14:06.205Z,17.32
2022-09-16T10:17:24.647Z,17.32
2022-09-16T10:21:06.968Z,17.34
2022-09-16T10:24:15.650Z,17.35
2022-09-16T10:27:43.992Z,17.37
2022-09-16T10:31:09.274Z,17.43
2022-09-16T10:34:15.839Z,17.48
2022-09-16T10:37:35.635Z,17.51
2022-09-16T10:40:41.254Z,17.54
2022-09-16T10:43:48.086Z,17.56
2022-09-16T10:47:43.317Z,17.57
2022-09-16T10:51:08.511Z,17.58
2022-09-16T10:54:20.998Z,17.59
2022-09-16T10:58:14.055Z,17.62
2022-09-16T11:02:03.806Z,17.62
2022-09-16T11:06:04.009Z,17.59
2022-09-16T11:09:27.565Z,17.55
2022-09-16T11:13:07.496Z,17.52
2022-09-16T11:16:53.522Z,17.52
2022-09-16T11:20:25.943Z,17.58
2022-09-16T11:24:17.611Z,17.63
2022-09-16T11:27:42.352Z,17.65
2022-09-16T11:30:55.309Z,17.75
2022-09-16T11:34:19.083Z,17.85
2022-09-16T11:37:45.989Z,17.97
2022-09-16T11:41:04.079Z,18.11
2022-09-16T11:44:30.479Z,18.30
2022-09-16T11:48:00.187Z,18.40
2022-09-16T11:51:33.495Z,18.48
2022-09-16T11:55:13.257Z,18.60
2022-09-16T11:58:26.513Z,18.75
2022-09-16T12:01:59.219Z,18.90
2022-09-16T12:05:35.001Z,19.03
2022-09-16T12:09:15.771Z,19.19
2022-09-16T12:12:33.414Z,19.38
2022-09-16T12:16:08.033Z,19.45
2022-09-16T12:19:42.976Z,19.65
2022-09-16T12:22:53.222Z,19.89
2022-09-16T12:26:19.619Z,20.01
2022-09-16T12:29:49.265Z,20.02
2022-09-16T12:33:30.966Z,20.02
2022-09-16T12:36:46.590Z,20.04
2022-09-16T12:39:53.757Z,20.12
2022-09-16T12:43:43.417Z,20.08
2022-09-16T12:47:43.365Z,19.99
2022-09-16T12:51:08.479Z,20.02
2022-09-16T12:54:51.189Z,20.10
2022-09-16T12:58:13.012Z,20.17
2022-09-16T13:01:42.834Z,20.20
2022-09-16T13:04:57.323Z,20.14
2022-09-16T13:08:07.936Z,19.98
2022-09-16T13:12:14.873Z,19.88
2022-09-16T13:14:43.228Z,19.84
2022-09-16T13:17:57.610Z,19.85
2022-09-16T13:21:14.780Z,19.82
2022-09-16T13:24:29.734Z,19.72
2022-09-16T13:27:46.193Z,19.70
2022-09-16T13:30:52.819Z,19.72
2022-09-16T13:34:15.921Z,19.78
2022-09-16T13:37:29.612Z,19.84
2022-09-16T13:40:42.666Z,19.88
2022-09-16T13:44:05.085Z,19.95
2022-09-16T13:47:31.149Z,20.06
2022-09-16T13:50:41.396Z,20.12
2022-09-16T13:53:52.401Z,20.10
2022-09-16T13:57:26.373Z,20.11
2022-09-16T14:00:55.169Z,20.13
2022-09-16T14:04:39.057Z,20.21
2022-09-16T14:08:14.242Z,20.25
2022-09-16T14:11:28.806Z,20.15
2022-09-16T14:14:49.105Z,20.00
2022-09-16T14:18:00.541Z,19.87
2022-09-16T14:21:28.234Z,19.79
2022-09-16T14:24:36.549Z,19.78
2022-09-16T14:27:47.939Z,19.79
2022-09-16T14:31:07.231Z,19.81
2022-09-16T14:34:18.200Z,19.81
2022-09-16T14:37:28.814Z,19.80
2022-09-16T14:40:37.627Z,19.80
2022-09-16T14:43:43.692Z,19.79
2022-09-16T14:46:50.199Z,19.74
2022-09-16T14:49:55.152Z,19.67
2022-09-16T14:53:16.065Z,19.61
2022-09-16T14:56:32.457Z,19.55
2022-09-16T14:59:43.885Z,19.51
2022-09-16T15:02:59.454Z,19.45
2022-09-16T15:06:06.396Z,19.40
2022-09-16T15:09:25.374Z,19.37
2022-09-16T15:12:55.652Z,19.31
2022-09-16T15:16:23.670Z,19.25
2022-09-16T15:19:37.393Z,19.17
2022-09-16T15:22:43.018Z,19.08
2022-09-16T15:25:49.483Z,19.01
2022-09-16T15:29:11.927Z,18.93
2022-09-16T15:32:37.049Z,18.84
2022-09-16T15:35:44.981Z,18.72
2022-09-16T15:38:51.338Z,18.59
2022-09-16T15:41:58.842Z,18.45
2022-09-16T15:45:07.099Z,18.30
2022-09-16T15:48:18.649Z,18.18
2022-09-16T15:51:55.585Z,18.06
2022-09-16T15:55:11.339Z,17.93
2022-09-16T15:58:34.605Z,17.78
2022-09-16T16:02:02.091Z,17.65
2022-09-16T16:05:08.587Z,17.54
2022-09-16T16:08:17.111Z,17.41
2022-09-16T16:11:26.283Z,17.30
2022-09-16T16:14:33.366Z,17.19
2022-09-16T16:17:39.875Z,17.09
2022-09-16T16:20:47.608Z,17.01
2022-09-16T16:23:53.916Z,16.91
2022-09-16T16:27:03.912Z,16.81
2022-09-16T16:30:10.369Z,16.71
2022-09-16T16:33:20.135Z,16.61
2022-09-16T16:36:30.116Z,16.53
2022-09-16T16:39:36.817Z,16.44
2022-09-16T16:42:43.729Z,16.37
2022-09-16T16:45:49.182Z,16.29
2022-09-16T16:48:57.408Z,16.24
2022-09-16T16:52:07.511Z,16.16
2022-09-16T16:55:14.647Z,16.08
2022-09-16T16:58:20.257Z,16.01
2022-09-16T17:01:28.372Z,15.95
2022-09-16T17:04:35.189Z,15.88
2022-09-16T17:07:43.069Z,15.82
2022-09-16T17:10:51.163Z,15.76
2022-09-16T17:13:59.656Z,15.68
2022-09-16T17:17:06.039Z,15.59
2022-09-16T17:20:13.209Z,15.57
2022-09-16T17:23:19.079Z,15.52
2022-09-16T17:26:26.869Z,15.46
2022-09-16T17:29:33.545Z,15.38
2022-09-16T17:32:38.241Z,15.32
2022-09-16T17:35:43.138Z,15.27
2022-09-16T17:38:48.451Z,15.20
2022-09-16T17:41:55.518Z,15.15
2022-09-16T17:45:01.281Z,15.09
2022-09-16T17:48:07.059Z,15.03
2022-09-16T17:51:11.928Z,14.96
2022-09-16T17:54:17.578Z,14.92
2022-09-16T17:57:23.227Z,14.86
2022-09-16T18:00:30.081Z,14.82
2022-09-16T18:03:36.038Z,14.78
2022-09-16T18:06:48.527Z,14.75
2022-09-16T18:09:54.578Z,14.69
2022-09-16T18:13:02.555Z,14.62
2022-09-16T18:16:09.715Z,14.60
2022-09-16T18:19:16.414Z,14.56
2022-09-16T18:22:23.978Z,14.51
2022-09-16T18:25:32.516Z,14.47
2022-09-16T18:29:05.177Z,14.43
2022-09-16T18:31:46.422Z,14.39
2022-09-16T18:34:51.852Z,14.36
2022-09-16T18:37:57.732Z,14.33
2022-09-16T18:41:04.110Z,14.28
2022-09-16T18:44:15.906Z,14.24
2022-09-16T18:47:22.233Z,14.17
2022-09-16T18:50:29.243Z,14.14
2022-09-16T18:53:34.857Z,14.14
2022-09-16T18:56:40.910Z,14.14
2022-09-16T18:59:47.233Z,14.13
2022-09-16T19:02:54.766Z,14.12
2022-09-16T19:06:12.821Z,14.12
2022-09-16T19:09:20.548Z,14.10
2022-09-16T19:12:27.502Z,14.12
2022-09-16T19:15:34.528Z,14.13
2022-09-16T19:18:40.774Z,14.13
2022-09-16T19:21:48.116Z,14.13
2022-09-16T19:24:54.149Z,14.13
2022-09-16T19:28:00.999Z,14.13
2022-09-16T19:31:05.781Z,14.14
2022-09-16T19:34:12.319Z,14.15
2022-09-16T19:37:18.748Z,14.16
2022-09-16T19:40:27.590Z,14.19
2022-09-16T19:43:36.461Z,14.24
2022-09-16T19:46:41.715Z,14.29
2022-09-16T19:49:48.420Z,14.32
2022-09-16T19:52:56.962Z,14.35
2022-09-16T19:56:04.311Z,14.37
2022-09-16T19:59:12.504Z,14.38
2022-09-16T20:02:19.534Z,14.41
2022-09-16T20:05:28.089Z,14.43
2022-09-16T20:08:33.761Z,14.44
2022-09-16T20:11:41.731Z,14.44
2022-09-16T20:14:47.915Z,14.43
2022-09-16T20:17:55.215Z,14.41
2022-09-16T20:20:59.975Z,14.39
2022-09-16T20:24:06.158Z,14.36
2022-09-16T20:27:11.913Z,14.34
2022-09-16T20:30:17.424Z,14.32
2022-09-16T20:33:22.965Z,14.29
2022-09-16T20:36:33.006Z,14.26
2022-09-16T20:39:40.497Z,14.24
2022-09-16T20:42:45.505Z,14.21
2022-09-16T20:45:51.998Z,14.20
2022-09-16T20:48:58.134Z,14.17
2022-09-16T20:52:05.273Z,14.15
2022-09-16T20:55:15.258Z,14.13
2022-09-16T20:58:20.248Z,14.12
2022-09-16T21:01:32.947Z,14.11
2022-09-16T21:04:39.393Z,14.11
2022-09-16T21:07:46.237Z,14.12
2022-09-16T21:10:55.491Z,14.14
2022-09-16T21:14:09.843Z,14.15
2022-09-16T21:17:16.872Z,14.17
2022-09-16T21:20:24.991Z,14.18
2022-09-16T21:23:32.468Z,14.19
2022-09-16T21:26:41.662Z,14.20
2022-09-16T21:29:47.802Z,14.20
2022-09-16T21:32:53.813Z,14.19
2022-09-16T21:36:07.109Z,14.19
2022-09-16T21:39:15.025Z,14.15
2022-09-16T21:42:20.779Z,14.11
2022-09-16T21:45:26.944Z,14.07
2022-09-16T21:48:34.322Z,14.03
2022-09-16T21:51:42.819Z,13.99
2022-09-16T21:54:47.974Z,13.93
2022-09-16T21:57:54.699Z,13.84
2022-09-16T22:01:00.920Z,13.79
2022-09-16T22:04:12.669Z,13.73
2022-09-16T22:07:18.245Z,13.68
2022-09-16T22:10:25.318Z,13.64
2022-09-16T22:13:31.908Z,13.60
2022-09-16T22:16:39.786Z,13.58
2022-09-16T22:19:46.349Z,13.57
2022-09-16T22:22:54.186Z,13.54
2022-09-16T22:26:00.343Z,13.53
2022-09-16T22:29:06.134Z,13.51
2022-09-16T22:32:13.899Z,13.49
2022-09-16T22:35:20.428Z,13.46
2022-09-16T22:38:26.043Z,13.41
2022-09-16T22:41:31.630Z,13.38
2022-09-16T22:44:38.085Z,13.36
2022-09-16T22:47:44.149Z,13.35
2022-09-16T22:50:49.892Z,13.33
2022-09-16T22:53:56.691Z,13.32
2022-09-16T22:57:03.063Z,13.29
2022-09-16T23:00:09.416Z,13.27
2022-09-16T23:03:15.981Z,13.25
2022-09-16T23:06:26.970Z,13.24
2022-09-16T23:09:32.319Z,13.23
2022-09-16T23:12:39.191Z,13.22
2022-09-16T23:15:45.351Z,13.20
2022-09-16T23:18:52.590Z,13.17
2022-09-16T23:21:58.418Z,13.13
2022-09-16T23:25:05.155Z,13.10
2022-09-16T23:28:12.330Z,13.04
2022-09-16T23:31:24.028Z,12.96
2022-09-16T23:34:33.472Z,12.89
2022-09-16T23:37:38.712Z,12.83
2022-09-16T23:40:47.716Z,12.76
2022-09-16T23:43:54.157Z,12.72
2022-09-16T23:47:00.556Z,12.70
2022-09-16T23:50:07.370Z,12.64
2022-09-16T23:53:14.188Z,12.59
2022-09-16T23:56:23.383Z,12.53
2022-09-16T23:59:29.643Z,12.51
